sensor_id;sensor_type;location;lat;lon;timestamp;P1;durP1;ratioP1;P2;durP2;ratioP2
54247;SDS011;40161;39.768;2.722;2023-02-18T00:01:17;13.73;;;9.88;;
54247;SDS011;40161;39.768;2.722;2023-02-18T00:03:45;10.68;;;8.00;;
54247;SDS011;40161;39.768;2.722;2023-02-18T00:08:44;18.50;;;11.75;;
54247;SDS011;40161;39.768;2.722;2023-02-18T00:11:11;20.73;;;15.93;;
54247;SDS011;40161;39.768;2.722;2023-02-18T00:13:37;19.95;;;13.45;;
54247;SDS011;40161;39.768;2.722;2023-02-18T00:16:04;16.42;;;12.10;;
54247;SDS011;40161;39.768;2.722;2023-02-18T00:18:31;15.40;;;10.98;;
54247;SDS011;40161;39.768;2.722;2023-02-18T00:20:57;13.88;;;9.85;;
54247;SDS011;40161;39.768;2.722;2023-02-18T00:23:23;16.20;;;11.35;;
54247;SDS011;40161;39.768;2.722;2023-02-18T00:25:49;13.38;;;9.95;;
54247;SDS011;40161;39.768;2.722;2023-02-18T00:28:23;13.57;;;9.20;;
54247;SDS011;40161;39.768;2.722;2023-02-18T00:30:48;17.52;;;11.23;;
54247;SDS011;40161;39.768;2.722;2023-02-18T00:33:14;14.38;;;9.23;;
54247;SDS011;40161;39.768;2.722;2023-02-18T00:35:39;18.98;;;12.55;;
54247;SDS011;40161;39.768;2.722;2023-02-18T00:38:05;13.35;;;8.15;;
54247;SDS011;40161;39.768;2.722;2023-02-18T00:40:30;10.00;;;6.93;;
54247;SDS011;40161;39.768;2.722;2023-02-18T00:42:56;10.30;;;7.20;;
54247;SDS011;40161;39.768;2.722;2023-02-18T00:45:21;11.90;;;8.82;;
54247;SDS011;40161;39.768;2.722;2023-02-18T00:47:47;13.00;;;9.13;;
54247;SDS011;40161;39.768;2.722;2023-02-18T00:50:12;13.65;;;10.15;;
54247;SDS011;40161;39.768;2.722;2023-02-18T00:52:38;14.63;;;9.30;;
54247;SDS011;40161;39.768;2.722;2023-02-18T00:55:04;12.43;;;8.60;;
54247;SDS011;40161;39.768;2.722;2023-02-18T00:57:29;15.23;;;8.75;;
54247;SDS011;40161;39.768;2.722;2023-02-18T00:59:55;11.63;;;8.20;;
54247;SDS011;40161;39.768;2.722;2023-02-18T01:02:20;11.70;;;7.90;;
54247;SDS011;40161;39.768;2.722;2023-02-18T01:04:46;11.90;;;7.78;;
54247;SDS011;40161;39.768;2.722;2023-02-18T01:07:12;13.50;;;9.27;;
54247;SDS011;40161;39.768;2.722;2023-02-18T01:09:37;11.88;;;7.93;;
54247;SDS011;40161;39.768;2.722;2023-02-18T01:12:03;15.05;;;10.77;;
54247;SDS011;40161;39.768;2.722;2023-02-18T01:14:29;16.70;;;11.80;;
54247;SDS011;40161;39.768;2.722;2023-02-18T01:16:54;16.17;;;11.52;;
54247;SDS011;40161;39.768;2.722;2023-02-18T01:19:20;17.38;;;10.32;;
54247;SDS011;40161;39.768;2.722;2023-02-18T01:21:45;11.23;;;8.10;;
54247;SDS011;40161;39.768;2.722;2023-02-18T01:24:11;12.65;;;8.32;;
54247;SDS011;40161;39.768;2.722;2023-02-18T01:26:36;16.45;;;9.80;;
54247;SDS011;40161;39.768;2.722;2023-02-18T01:29:02;15.25;;;10.68;;
54247;SDS011;40161;39.768;2.722;2023-02-18T01:31:29;11.98;;;7.63;;
54247;SDS011;40161;39.768;2.722;2023-02-18T01:33:54;7.80;;;5.68;;
54247;SDS011;40161;39.768;2.722;2023-02-18T01:36:21;11.10;;;8.80;;
54247;SDS011;40161;39.768;2.722;2023-02-18T01:38:47;11.90;;;8.95;;
54247;SDS011;40161;39.768;2.722;2023-02-18T01:41:13;12.70;;;8.88;;
54247;SDS011;40161;39.768;2.722;2023-02-18T01:43:39;12.75;;;9.40;;
54247;SDS011;40161;39.768;2.722;2023-02-18T01:46:07;12.93;;;9.15;;
54247;SDS011;40161;39.768;2.722;2023-02-18T01:48:50;15.98;;;9.93;;
54247;SDS011;40161;39.768;2.722;2023-02-18T01:51:24;14.23;;;10.23;;
54247;SDS011;40161;39.768;2.722;2023-02-18T01:56:54;13.90;;;9.40;;
54247;SDS011;40161;39.768;2.722;2023-02-18T01:59:28;10.15;;;7.70;;
54247;SDS011;40161;39.768;2.722;2023-02-18T02:01:58;11.27;;;7.88;;
54247;SDS011;40161;39.768;2.722;2023-02-18T02:04:24;11.38;;;8.05;;
54247;SDS011;40161;39.768;2.722;2023-02-18T02:06:50;11.65;;;8.77;;
54247;SDS011;40161;39.768;2.722;2023-02-18T02:09:16;12.00;;;8.88;;
54247;SDS011;40161;39.768;2.722;2023-02-18T02:17:07;9.43;;;5.63;;
54247;SDS011;40161;39.768;2.722;2023-02-18T02:22:25;11.02;;;6.55;;
54247;SDS011;40161;39.768;2.722;2023-02-18T02:33:06;7.45;;;5.20;;
54247;SDS011;40161;39.768;2.722;2023-02-18T02:38:47;9.00;;;5.28;;
54247;SDS011;40161;39.768;2.722;2023-02-18T02:41:37;14.10;;;9.10;;
54247;SDS011;40161;39.768;2.722;2023-02-18T02:46:54;9.52;;;5.68;;
54247;SDS011;40161;39.768;2.722;2023-02-18T02:49:36;7.22;;;4.75;;
54247;SDS011;40161;39.768;2.722;2023-02-18T02:54:45;9.05;;;5.47;;
54247;SDS011;40161;39.768;2.722;2023-02-18T02:59:36;7.63;;;5.15;;
54247;SDS011;40161;39.768;2.722;2023-02-18T03:05:00;7.63;;;4.72;;
54247;SDS011;40161;39.768;2.722;2023-02-18T03:10:25;6.88;;;4.78;;
54247;SDS011;40161;39.768;2.722;2023-02-18T03:16:08;8.73;;;5.20;;
54247;SDS011;40161;39.768;2.722;2023-02-18T03:18:44;8.35;;;5.82;;
54247;SDS011;40161;39.768;2.722;2023-02-18T03:24:02;9.98;;;6.75;;
54247;SDS011;40161;39.768;2.722;2023-02-18T03:26:35;7.78;;;5.30;;
54247;SDS011;40161;39.768;2.722;2023-02-18T03:29:06;7.72;;;4.43;;
54247;SDS011;40161;39.768;2.722;2023-02-18T03:31:34;8.30;;;5.80;;
54247;SDS011;40161;39.768;2.722;2023-02-18T03:34:08;10.95;;;5.55;;
54247;SDS011;40161;39.768;2.722;2023-02-18T03:36:37;11.05;;;6.53;;
54247;SDS011;40161;39.768;2.722;2023-02-18T03:39:10;7.57;;;4.93;;
54247;SDS011;40161;39.768;2.722;2023-02-18T03:41:40;8.35;;;5.38;;
54247;SDS011;40161;39.768;2.722;2023-02-18T03:44:07;10.80;;;5.95;;
54247;SDS011;40161;39.768;2.722;2023-02-18T03:46:34;8.88;;;5.90;;
54247;SDS011;40161;39.768;2.722;2023-02-18T03:49:02;6.85;;;4.57;;
54247;SDS011;40161;39.768;2.722;2023-02-18T03:51:28;7.85;;;5.05;;
54247;SDS011;40161;39.768;2.722;2023-02-18T03:53:53;6.50;;;4.57;;
54247;SDS011;40161;39.768;2.722;2023-02-18T03:56:19;7.07;;;4.45;;
54247;SDS011;40161;39.768;2.722;2023-02-18T03:58:45;8.45;;;4.60;;
54247;SDS011;40161;39.768;2.722;2023-02-18T04:01:11;8.48;;;5.07;;
54247;SDS011;40161;39.768;2.722;2023-02-18T04:03:36;7.72;;;5.05;;
54247;SDS011;40161;39.768;2.722;2023-02-18T04:06:02;7.25;;;4.70;;
54247;SDS011;40161;39.768;2.722;2023-02-18T04:08:28;8.40;;;5.10;;
54247;SDS011;40161;39.768;2.722;2023-02-18T04:10:53;7.72;;;4.97;;
54247;SDS011;40161;39.768;2.722;2023-02-18T04:13:19;8.00;;;4.80;;
54247;SDS011;40161;39.768;2.722;2023-02-18T04:15:44;8.38;;;4.95;;
54247;SDS011;40161;39.768;2.722;2023-02-18T04:18:12;7.90;;;5.13;;
54247;SDS011;40161;39.768;2.722;2023-02-18T04:20:38;6.57;;;4.22;;
54247;SDS011;40161;39.768;2.722;2023-02-18T04:23:03;7.40;;;5.00;;
54247;SDS011;40161;39.768;2.722;2023-02-18T04:25:29;7.85;;;4.35;;
54247;SDS011;40161;39.768;2.722;2023-02-18T04:27:55;7.03;;;4.90;;
54247;SDS011;40161;39.768;2.722;2023-02-18T04:30:21;7.50;;;4.20;;
54247;SDS011;40161;39.768;2.722;2023-02-18T04:32:46;7.70;;;4.20;;
54247;SDS011;40161;39.768;2.722;2023-02-18T04:35:12;6.68;;;4.53;;
54247;SDS011;40161;39.768;2.722;2023-02-18T04:37:37;6.60;;;4.32;;
54247;SDS011;40161;39.768;2.722;2023-02-18T04:40:03;6.15;;;4.05;;
54247;SDS011;40161;39.768;2.722;2023-02-18T04:42:29;7.15;;;4.78;;
54247;SDS011;40161;39.768;2.722;2023-02-18T04:44:55;7.75;;;4.40;;
54247;SDS011;40161;39.768;2.722;2023-02-18T04:47:20;6.82;;;4.70;;
54247;SDS011;40161;39.768;2.722;2023-02-18T04:49:46;7.05;;;4.20;;
54247;SDS011;40161;39.768;2.722;2023-02-18T04:52:11;8.55;;;5.25;;
54247;SDS011;40161;39.768;2.722;2023-02-18T04:54:37;8.27;;;5.72;;
54247;SDS011;40161;39.768;2.722;2023-02-18T04:57:03;7.07;;;5.03;;
54247;SDS011;40161;39.768;2.722;2023-02-18T04:59:28;8.10;;;4.72;;
54247;SDS011;40161;39.768;2.722;2023-02-18T05:01:54;8.10;;;4.47;;
54247;SDS011;40161;39.768;2.722;2023-02-18T05:04:19;7.85;;;4.70;;
54247;SDS011;40161;39.768;2.722;2023-02-18T05:06:45;6.85;;;4.68;;
54247;SDS011;40161;39.768;2.722;2023-02-18T05:09:11;7.00;;;4.40;;
54247;SDS011;40161;39.768;2.722;2023-02-18T05:11:37;8.07;;;4.72;;
54247;SDS011;40161;39.768;2.722;2023-02-18T05:14:03;7.35;;;4.68;;
54247;SDS011;40161;39.768;2.722;2023-02-18T05:16:29;6.63;;;4.50;;
54247;SDS011;40161;39.768;2.722;2023-02-18T05:18:54;8.23;;;5.15;;
54247;SDS011;40161;39.768;2.722;2023-02-18T05:21:20;8.38;;;5.18;;
54247;SDS011;40161;39.768;2.722;2023-02-18T05:23:45;7.03;;;4.85;;
54247;SDS011;40161;39.768;2.722;2023-02-18T05:26:11;8.25;;;5.03;;
54247;SDS011;40161;39.768;2.722;2023-02-18T05:28:37;7.05;;;4.60;;
54247;SDS011;40161;39.768;2.722;2023-02-18T05:31:02;10.95;;;6.00;;
54247;SDS011;40161;39.768;2.722;2023-02-18T05:33:28;7.00;;;4.50;;
54247;SDS011;40161;39.768;2.722;2023-02-18T05:35:54;7.40;;;4.88;;
54247;SDS011;40161;39.768;2.722;2023-02-18T05:38:19;6.82;;;4.63;;
54247;SDS011;40161;39.768;2.722;2023-02-18T05:40:45;6.88;;;4.55;;
54247;SDS011;40161;39.768;2.722;2023-02-18T05:43:11;8.57;;;5.93;;
54247;SDS011;40161;39.768;2.722;2023-02-18T05:45:37;7.28;;;5.20;;
54247;SDS011;40161;39.768;2.722;2023-02-18T05:48:03;7.05;;;4.68;;
54247;SDS011;40161;39.768;2.722;2023-02-18T05:50:29;7.85;;;4.82;;
54247;SDS011;40161;39.768;2.722;2023-02-18T05:52:55;8.65;;;4.72;;
54247;SDS011;40161;39.768;2.722;2023-02-18T05:55:20;8.02;;;5.03;;
54247;SDS011;40161;39.768;2.722;2023-02-18T05:57:46;7.15;;;4.57;;
54247;SDS011;40161;39.768;2.722;2023-02-18T06:00:12;7.90;;;5.00;;
54247;SDS011;40161;39.768;2.722;2023-02-18T06:02:38;8.40;;;5.47;;
54247;SDS011;40161;39.768;2.722;2023-02-18T06:05:03;10.63;;;5.55;;
54247;SDS011;40161;39.768;2.722;2023-02-18T06:07:29;10.05;;;7.35;;
54247;SDS011;40161;39.768;2.722;2023-02-18T06:09:55;19.20;;;15.48;;
54247;SDS011;40161;39.768;2.722;2023-02-18T06:12:21;12.88;;;9.93;;
54247;SDS011;40161;39.768;2.722;2023-02-18T06:14:46;13.82;;;11.43;;
54247;SDS011;40161;39.768;2.722;2023-02-18T06:17:12;8.40;;;5.80;;
54247;SDS011;40161;39.768;2.722;2023-02-18T06:19:39;9.35;;;6.13;;
54247;SDS011;40161;39.768;2.722;2023-02-18T06:22:05;9.95;;;4.97;;
54247;SDS011;40161;39.768;2.722;2023-02-18T06:24:31;8.20;;;5.65;;
54247;SDS011;40161;39.768;2.722;2023-02-18T06:26:57;7.68;;;4.68;;
54247;SDS011;40161;39.768;2.722;2023-02-18T06:29:23;9.77;;;6.88;;
54247;SDS011;40161;39.768;2.722;2023-02-18T06:31:49;8.82;;;6.22;;
54247;SDS011;40161;39.768;2.722;2023-02-18T06:34:15;7.72;;;5.85;;
54247;SDS011;40161;39.768;2.722;2023-02-18T06:36:40;8.73;;;5.85;;
54247;SDS011;40161;39.768;2.722;2023-02-18T06:39:06;9.02;;;5.90;;
54247;SDS011;40161;39.768;2.722;2023-02-18T06:41:32;9.27;;;5.63;;
54247;SDS011;40161;39.768;2.722;2023-02-18T06:43:57;10.10;;;6.07;;
54247;SDS011;40161;39.768;2.722;2023-02-18T06:46:23;11.20;;;6.60;;
54247;SDS011;40161;39.768;2.722;2023-02-18T06:48:49;12.85;;;6.55;;
54247;SDS011;40161;39.768;2.722;2023-02-18T06:51:14;13.63;;;7.18;;
54247;SDS011;40161;39.768;2.722;2023-02-18T06:53:43;10.38;;;5.80;;
54247;SDS011;40161;39.768;2.722;2023-02-18T06:56:10;9.90;;;6.57;;
54247;SDS011;40161;39.768;2.722;2023-02-18T06:58:36;14.27;;;7.93;;
54247;SDS011;40161;39.768;2.722;2023-02-18T07:01:01;10.82;;;8.20;;
54247;SDS011;40161;39.768;2.722;2023-02-18T07:03:27;8.05;;;5.63;;
54247;SDS011;40161;39.768;2.722;2023-02-18T07:05:53;12.55;;;7.88;;
54247;SDS011;40161;39.768;2.722;2023-02-18T07:08:18;9.60;;;6.63;;
54247;SDS011;40161;39.768;2.722;2023-02-18T07:10:44;8.65;;;6.25;;
54247;SDS011;40161;39.768;2.722;2023-02-18T07:13:09;10.00;;;6.63;;
54247;SDS011;40161;39.768;2.722;2023-02-18T07:15:35;9.73;;;5.72;;
54247;SDS011;40161;39.768;2.722;2023-02-18T07:18:00;7.70;;;5.20;;
54247;SDS011;40161;39.768;2.722;2023-02-18T07:20:26;7.63;;;4.97;;
54247;SDS011;40161;39.768;2.722;2023-02-18T07:22:52;9.30;;;4.82;;
54247;SDS011;40161;39.768;2.722;2023-02-18T07:25:18;7.03;;;4.80;;
54247;SDS011;40161;39.768;2.722;2023-02-18T07:27:43;7.93;;;4.78;;
54247;SDS011;40161;39.768;2.722;2023-02-18T07:30:09;8.20;;;5.70;;
54247;SDS011;40161;39.768;2.722;2023-02-18T07:32:35;9.02;;;5.93;;
54247;SDS011;40161;39.768;2.722;2023-02-18T07:35:01;9.40;;;6.13;;
54247;SDS011;40161;39.768;2.722;2023-02-18T07:37:28;15.40;;;10.25;;
54247;SDS011;40161;39.768;2.722;2023-02-18T07:39:53;55.55;;;33.22;;
54247;SDS011;40161;39.768;2.722;2023-02-18T07:42:19;16.63;;;12.75;;
54247;SDS011;40161;39.768;2.722;2023-02-18T07:44:44;12.85;;;9.20;;
54247;SDS011;40161;39.768;2.722;2023-02-18T07:47:12;12.35;;;8.32;;
54247;SDS011;40161;39.768;2.722;2023-02-18T07:49:39;14.70;;;9.13;;
54247;SDS011;40161;39.768;2.722;2023-02-18T07:52:05;13.65;;;8.55;;
54247;SDS011;40161;39.768;2.722;2023-02-18T07:54:30;20.38;;;13.05;;
54247;SDS011;40161;39.768;2.722;2023-02-18T07:56:56;18.60;;;11.98;;
54247;SDS011;40161;39.768;2.722;2023-02-18T07:59:21;26.02;;;15.80;;
54247;SDS011;40161;39.768;2.722;2023-02-18T08:01:47;99.93;;;67.95;;
54247;SDS011;40161;39.768;2.722;2023-02-18T08:04:12;127.68;;;73.75;;
54247;SDS011;40161;39.768;2.722;2023-02-18T08:06:40;363.08;;;192.73;;
54247;SDS011;40161;39.768;2.722;2023-02-18T08:09:08;97.18;;;59.90;;
54247;SDS011;40161;39.768;2.722;2023-02-18T08:11:34;96.45;;;60.33;;
54247;SDS011;40161;39.768;2.722;2023-02-18T08:13:59;86.28;;;53.03;;
54247;SDS011;40161;39.768;2.722;2023-02-18T08:16:25;56.75;;;39.63;;
54247;SDS011;40161;39.768;2.722;2023-02-18T08:18:51;64.25;;;44.15;;
54247;SDS011;40161;39.768;2.722;2023-02-18T08:21:18;60.30;;;39.78;;
54247;SDS011;40161;39.768;2.722;2023-02-18T08:23:46;168.88;;;94.90;;
54247;SDS011;40161;39.768;2.722;2023-02-18T08:26:12;135.45;;;80.28;;
54247;SDS011;40161;39.768;2.722;2023-02-18T08:28:38;129.60;;;77.30;;
54247;SDS011;40161;39.768;2.722;2023-02-18T08:31:04;95.95;;;56.22;;
54247;SDS011;40161;39.768;2.722;2023-02-18T08:33:29;89.40;;;53.67;;
54247;SDS011;40161;39.768;2.722;2023-02-18T08:35:56;206.07;;;109.50;;
54247;SDS011;40161;39.768;2.722;2023-02-18T08:38:22;164.75;;;88.50;;
54247;SDS011;40161;39.768;2.722;2023-02-18T08:40:48;251.40;;;133.38;;
54247;SDS011;40161;39.768;2.722;2023-02-18T08:43:15;186.20;;;100.78;;
54247;SDS011;40161;39.768;2.722;2023-02-18T08:45:42;190.95;;;102.20;;
54247;SDS011;40161;39.768;2.722;2023-02-18T08:48:09;192.57;;;102.30;;
54247;SDS011;40161;39.768;2.722;2023-02-18T08:50:36;228.35;;;125.18;;
54247;SDS011;40161;39.768;2.722;2023-02-18T08:53:02;160.57;;;94.13;;
54247;SDS011;40161;39.768;2.722;2023-02-18T08:55:32;127.25;;;74.70;;
54247;SDS011;40161;39.768;2.722;2023-02-18T08:57:58;162.80;;;92.35;;
54247;SDS011;40161;39.768;2.722;2023-02-18T09:00:25;147.07;;;89.75;;
54247;SDS011;40161;39.768;2.722;2023-02-18T09:02:51;120.45;;;76.00;;
54247;SDS011;40161;39.768;2.722;2023-02-18T09:05:16;99.95;;;60.42;;
54247;SDS011;40161;39.768;2.722;2023-02-18T09:07:42;97.72;;;58.67;;
54247;SDS011;40161;39.768;2.722;2023-02-18T09:10:08;87.82;;;52.10;;
54247;SDS011;40161;39.768;2.722;2023-02-18T09:12:34;96.35;;;57.58;;
54247;SDS011;40161;39.768;2.722;2023-02-18T09:15:00;86.10;;;53.58;;
54247;SDS011;40161;39.768;2.722;2023-02-18T09:17:26;56.80;;;37.22;;
54247;SDS011;40161;39.768;2.722;2023-02-18T09:19:52;43.15;;;30.50;;
54247;SDS011;40161;39.768;2.722;2023-02-18T09:22:18;35.17;;;23.73;;
54247;SDS011;40161;39.768;2.722;2023-02-18T09:24:44;50.15;;;31.77;;
54247;SDS011;40161;39.768;2.722;2023-02-18T09:27:09;34.53;;;21.42;;
54247;SDS011;40161;39.768;2.722;2023-02-18T09:29:37;23.23;;;15.93;;
54247;SDS011;40161;39.768;2.722;2023-02-18T09:32:03;33.92;;;21.25;;
54247;SDS011;40161;39.768;2.722;2023-02-18T09:34:30;34.47;;;23.15;;
54247;SDS011;40161;39.768;2.722;2023-02-18T09:36:55;40.15;;;26.15;;
54247;SDS011;40161;39.768;2.722;2023-02-18T09:39:21;43.78;;;29.02;;
54247;SDS011;40161;39.768;2.722;2023-02-18T09:41:49;45.55;;;28.23;;
54247;SDS011;40161;39.768;2.722;2023-02-18T09:44:22;45.00;;;30.05;;
54247;SDS011;40161;39.768;2.722;2023-02-18T09:49:28;43.22;;;29.27;;
54247;SDS011;40161;39.768;2.722;2023-02-18T09:52:02;29.10;;;20.40;;
54247;SDS011;40161;39.768;2.722;2023-02-18T09:54:34;29.88;;;20.00;;
54247;SDS011;40161;39.768;2.722;2023-02-18T09:56:59;28.30;;;19.50;;
54247;SDS011;40161;39.768;2.722;2023-02-18T09:59:27;21.75;;;15.45;;
54247;SDS011;40161;39.768;2.722;2023-02-18T10:01:55;20.75;;;13.18;;
54247;SDS011;40161;39.768;2.722;2023-02-18T10:04:41;23.77;;;15.88;;
54247;SDS011;40161;39.768;2.722;2023-02-18T10:07:17;18.70;;;12.95;;
54247;SDS011;40161;39.768;2.722;2023-02-18T10:09:47;17.50;;;12.45;;
54247;SDS011;40161;39.768;2.722;2023-02-18T10:12:17;18.83;;;11.35;;
54247;SDS011;40161;39.768;2.722;2023-02-18T10:14:47;17.25;;;11.55;;
54247;SDS011;40161;39.768;2.722;2023-02-18T10:17:15;22.83;;;14.88;;
54247;SDS011;40161;39.768;2.722;2023-02-18T10:19:42;20.15;;;14.35;;
54247;SDS011;40161;39.768;2.722;2023-02-18T10:22:10;17.23;;;12.63;;
54247;SDS011;40161;39.768;2.722;2023-02-18T10:24:40;22.38;;;15.32;;
54247;SDS011;40161;39.768;2.722;2023-02-18T10:27:12;17.98;;;12.55;;
54247;SDS011;40161;39.768;2.722;2023-02-18T10:29:48;13.75;;;7.15;;
54247;SDS011;40161;39.768;2.722;2023-02-18T10:32:26;9.95;;;6.90;;
54247;SDS011;40161;39.768;2.722;2023-02-18T10:34:59;17.55;;;12.25;;
54247;SDS011;40161;39.768;2.722;2023-02-18T10:37:53;16.27;;;11.48;;
54247;SDS011;40161;39.768;2.722;2023-02-18T10:40:43;14.80;;;10.85;;
54247;SDS011;40161;39.768;2.722;2023-02-18T10:46:06;15.45;;;10.77;;
54247;SDS011;40161;39.768;2.722;2023-02-18T10:51:36;13.00;;;9.40;;
54247;SDS011;40161;39.768;2.722;2023-02-18T10:54:09;10.13;;;7.10;;
54247;SDS011;40161;39.768;2.722;2023-02-18T10:56:39;10.27;;;6.95;;
54247;SDS011;40161;39.768;2.722;2023-02-18T11:04:22;7.75;;;5.13;;
54247;SDS011;40161;39.768;2.722;2023-02-18T11:06:52;9.27;;;5.70;;
54247;SDS011;40161;39.768;2.722;2023-02-18T11:11:50;9.02;;;5.47;;
54247;SDS011;40161;39.768;2.722;2023-02-18T11:14:32;8.10;;;5.50;;
54247;SDS011;40161;39.768;2.722;2023-02-18T11:17:26;7.13;;;4.57;;
54247;SDS011;40161;39.768;2.722;2023-02-18T11:20:00;8.13;;;5.50;;
54247;SDS011;40161;39.768;2.722;2023-02-18T11:22:29;9.60;;;5.50;;
54247;SDS011;40161;39.768;2.722;2023-02-18T11:24:56;9.13;;;5.65;;
54247;SDS011;40161;39.768;2.722;2023-02-18T11:27:45;8.85;;;6.18;;
54247;SDS011;40161;39.768;2.722;2023-02-18T11:32:58;5.82;;;3.10;;
54247;SDS011;40161;39.768;2.722;2023-02-18T11:35:27;5.68;;;2.97;;
54247;SDS011;40161;39.768;2.722;2023-02-18T11:37:56;4.40;;;2.60;;
54247;SDS011;40161;39.768;2.722;2023-02-18T11:40:24;7.78;;;3.40;;
54247;SDS011;40161;39.768;2.722;2023-02-18T11:43:06;5.88;;;3.25;;
54247;SDS011;40161;39.768;2.722;2023-02-18T11:45:39;5.82;;;3.08;;
54247;SDS011;40161;39.768;2.722;2023-02-18T11:48:07;7.28;;;3.55;;
54247;SDS011;40161;39.768;2.722;2023-02-18T11:50:40;8.98;;;4.60;;
54247;SDS011;40161;39.768;2.722;2023-02-18T11:53:25;5.35;;;3.58;;
54247;SDS011;40161;39.768;2.722;2023-02-18T11:56:03;6.93;;;3.33;;
54247;SDS011;40161;39.768;2.722;2023-02-18T11:58:40;6.38;;;3.53;;
54247;SDS011;40161;39.768;2.722;2023-02-18T12:06:44;6.43;;;3.03;;
54247;SDS011;40161;39.768;2.722;2023-02-18T12:09:17;5.07;;;2.80;;
54247;SDS011;40161;39.768;2.722;2023-02-18T12:11:53;6.38;;;3.03;;
54247;SDS011;40161;39.768;2.722;2023-02-18T12:14:22;5.68;;;3.10;;
54247;SDS011;40161;39.768;2.722;2023-02-18T12:22:37;6.32;;;2.72;;
54247;SDS011;40161;39.768;2.722;2023-02-18T12:30:35;5.70;;;3.17;;
54247;SDS011;40161;39.768;2.722;2023-02-18T12:36:17;6.85;;;3.35;;
54247;SDS011;40161;39.768;2.722;2023-02-18T12:44:33;4.32;;;2.70;;
54247;SDS011;40161;39.768;2.722;2023-02-18T12:52:32;6.53;;;3.28;;
54247;SDS011;40161;39.768;2.722;2023-02-18T13:01:09;5.95;;;2.97;;
54247;SDS011;40161;39.768;2.722;2023-02-18T13:07:12;6.90;;;3.00;;
54247;SDS011;40161;39.768;2.722;2023-02-18T13:17:28;6.38;;;3.53;;
54247;SDS011;40161;39.768;2.722;2023-02-18T13:20:00;4.97;;;3.05;;
54247;SDS011;40161;39.768;2.722;2023-02-18T13:22:33;4.68;;;2.60;;
54247;SDS011;40161;39.768;2.722;2023-02-18T13:24:59;5.28;;;3.00;;
54247;SDS011;40161;39.768;2.722;2023-02-18T13:32:59;4.63;;;2.53;;
54247;SDS011;40161;39.768;2.722;2023-02-18T13:35:42;4.63;;;2.97;;
54247;SDS011;40161;39.768;2.722;2023-02-18T13:41:12;5.68;;;2.90;;
54247;SDS011;40161;39.768;2.722;2023-02-18T13:43:38;6.25;;;2.80;;
54247;SDS011;40161;39.768;2.722;2023-02-18T13:48:33;7.18;;;3.17;;
54247;SDS011;40161;39.768;2.722;2023-02-18T13:51:12;6.38;;;2.80;;
54247;SDS011;40161;39.768;2.722;2023-02-18T13:53:41;5.72;;;3.30;;
54247;SDS011;40161;39.768;2.722;2023-02-18T13:56:28;6.05;;;2.70;;
54247;SDS011;40161;39.768;2.722;2023-02-18T13:59:17;5.43;;;2.92;;
54247;SDS011;40161;39.768;2.722;2023-02-18T14:01:47;4.20;;;2.58;;
54247;SDS011;40161;39.768;2.722;2023-02-18T14:09:57;5.60;;;2.60;;
54247;SDS011;40161;39.768;2.722;2023-02-18T14:12:35;4.78;;;2.80;;
54247;SDS011;40161;39.768;2.722;2023-02-18T14:17:49;4.28;;;2.40;;
54247;SDS011;40161;39.768;2.722;2023-02-18T14:25:47;5.18;;;2.45;;
54247;SDS011;40161;39.768;2.722;2023-02-18T14:33:36;6.00;;;2.80;;
54247;SDS011;40161;39.768;2.722;2023-02-18T14:36:17;5.50;;;2.75;;
54247;SDS011;40161;39.768;2.722;2023-02-18T14:44:45;7.72;;;3.50;;
54247;SDS011;40161;39.768;2.722;2023-02-18T14:50:30;8.07;;;3.03;;
54247;SDS011;40161;39.768;2.722;2023-02-18T14:55:29;5.75;;;3.30;;
54247;SDS011;40161;39.768;2.722;2023-02-18T15:00:27;9.00;;;4.97;;
54247;SDS011;40161;39.768;2.722;2023-02-18T15:02:58;11.93;;;7.18;;
54247;SDS011;40161;39.768;2.722;2023-02-18T15:05:29;6.32;;;3.70;;
54247;SDS011;40161;39.768;2.722;2023-02-18T15:08:09;5.18;;;2.80;;
54247;SDS011;40161;39.768;2.722;2023-02-18T15:11:00;5.25;;;3.03;;
54247;SDS011;40161;39.768;2.722;2023-02-18T15:13:33;4.55;;;2.80;;
54247;SDS011;40161;39.768;2.722;2023-02-18T15:16:05;5.70;;;3.00;;
54247;SDS011;40161;39.768;2.722;2023-02-18T15:18:33;5.15;;;3.28;;
54247;SDS011;40161;39.768;2.722;2023-02-18T15:21:02;6.55;;;3.20;;
54247;SDS011;40161;39.768;2.722;2023-02-18T15:23:30;5.25;;;2.70;;
54247;SDS011;40161;39.768;2.722;2023-02-18T15:25:59;5.22;;;3.00;;
54247;SDS011;40161;39.768;2.722;2023-02-18T15:28:30;5.63;;;2.78;;
54247;SDS011;40161;39.768;2.722;2023-02-18T15:30:58;6.07;;;3.30;;
54247;SDS011;40161;39.768;2.722;2023-02-18T15:33:25;6.65;;;4.40;;
54247;SDS011;40161;39.768;2.722;2023-02-18T15:35:58;5.50;;;3.25;;
54247;SDS011;40161;39.768;2.722;2023-02-18T15:38:28;5.47;;;3.17;;
54247;SDS011;40161;39.768;2.722;2023-02-18T15:40:55;5.43;;;3.50;;
54247;SDS011;40161;39.768;2.722;2023-02-18T15:43:22;6.75;;;3.70;;
54247;SDS011;40161;39.768;2.722;2023-02-18T15:45:51;7.07;;;3.53;;
54247;SDS011;40161;39.768;2.722;2023-02-18T15:51:04;5.80;;;3.38;;
54247;SDS011;40161;39.768;2.722;2023-02-18T15:53:36;5.10;;;3.10;;
54247;SDS011;40161;39.768;2.722;2023-02-18T15:56:05;6.15;;;3.50;;
54247;SDS011;40161;39.768;2.722;2023-02-18T15:58:34;6.15;;;4.00;;
54247;SDS011;40161;39.768;2.722;2023-02-18T16:01:01;7.93;;;3.80;;
54247;SDS011;40161;39.768;2.722;2023-02-18T16:03:32;4.63;;;3.15;;
54247;SDS011;40161;39.768;2.722;2023-02-18T16:11:33;5.95;;;3.45;;
54247;SDS011;40161;39.768;2.722;2023-02-18T16:14:04;7.70;;;4.38;;
54247;SDS011;40161;39.768;2.722;2023-02-18T16:16:34;5.82;;;3.58;;
54247;SDS011;40161;39.768;2.722;2023-02-18T16:19:02;5.75;;;3.85;;
54247;SDS011;40161;39.768;2.722;2023-02-18T16:24:02;9.75;;;6.50;;
54247;SDS011;40161;39.768;2.722;2023-02-18T16:26:45;10.50;;;7.20;;
54247;SDS011;40161;39.768;2.722;2023-02-18T16:29:53;10.77;;;7.07;;
54247;SDS011;40161;39.768;2.722;2023-02-18T16:32:01;11.30;;;7.05;;
54247;SDS011;40161;39.768;2.722;2023-02-18T16:34:26;9.30;;;6.57;;
54247;SDS011;40161;39.768;2.722;2023-02-18T16:36:52;9.18;;;6.32;;
54247;SDS011;40161;39.768;2.722;2023-02-18T16:39:36;10.43;;;7.68;;
54247;SDS011;40161;39.768;2.722;2023-02-18T16:42:04;18.67;;;14.32;;
54247;SDS011;40161;39.768;2.722;2023-02-18T16:44:36;12.65;;;10.43;;
54247;SDS011;40161;39.768;2.722;2023-02-18T16:47:03;13.20;;;10.05;;
54247;SDS011;40161;39.768;2.722;2023-02-18T16:49:29;12.02;;;9.40;;
54247;SDS011;40161;39.768;2.722;2023-02-18T16:51:55;16.95;;;11.43;;
54247;SDS011;40161;39.768;2.722;2023-02-18T16:54:20;16.33;;;11.23;;
54247;SDS011;40161;39.768;2.722;2023-02-18T16:56:46;13.30;;;10.57;;
54247;SDS011;40161;39.768;2.722;2023-02-18T16:59:12;11.70;;;8.90;;
54247;SDS011;40161;39.768;2.722;2023-02-18T17:01:39;9.15;;;7.95;;
54247;SDS011;40161;39.768;2.722;2023-02-18T17:04:11;14.43;;;8.15;;
54247;SDS011;40161;39.768;2.722;2023-02-18T17:06:42;24.63;;;13.02;;
54247;SDS011;40161;39.768;2.722;2023-02-18T17:09:13;27.90;;;11.98;;
54247;SDS011;40161;39.768;2.722;2023-02-18T17:11:41;30.33;;;13.88;;
54247;SDS011;40161;39.768;2.722;2023-02-18T17:14:14;39.45;;;17.25;;
54247;SDS011;40161;39.768;2.722;2023-02-18T17:16:45;24.60;;;13.93;;
54247;SDS011;40161;39.768;2.722;2023-02-18T17:19:12;41.83;;;25.65;;
54247;SDS011;40161;39.768;2.722;2023-02-18T17:21:38;41.67;;;25.65;;
54247;SDS011;40161;39.768;2.722;2023-02-18T17:24:03;37.17;;;24.05;;
54247;SDS011;40161;39.768;2.722;2023-02-18T17:26:29;28.23;;;19.67;;
54247;SDS011;40161;39.768;2.722;2023-02-18T17:28:56;21.10;;;14.43;;
54247;SDS011;40161;39.768;2.722;2023-02-18T17:31:27;27.20;;;18.45;;